Data for 08/08/2007

Time Sea-Level Adjusted Pressure Absolute Pressure Temperature Relative Humidity Dew Point   
(mb) (inHg) (mb) (inHg) (C) (F) (%) (C) (F)
00:05 1016 30 845 24.95 17.5 63.5 34 1.6 34.8
00:10 1016 30 845 24.95 17.2 63 36 2.3 36.1
00:15 1015 29.97 845 24.95 16.8 62.2 37 2.1 35.8
00:20 1016 30 845 24.95 16.4 61.5 39 2.5 36.6
00:25 1016 30 845 24.95 16.2 61.2 40 2.7 36.9
00:30 1016 30 845 24.95 15.8 60.4 40 2.3 36.2
00:35 1016 30 845 24.95 15.7 60.3 41 2.7 36.9
00:40 1016 30 845 24.95 15.5 59.9 41 2.2 36
00:45 1016 30 845 24.95 15.7 60.2 40 2.3 36.1
00:50 1016 30 845 24.95 15.7 60.2 41 2.5 36.5
00:55 1016 30 845 24.95 15.6 60 39 1.7 35.1
01:00 1016 30 845 24.95 15.9 60.5 41 2.6 36.7
01:05 1016 30 845 24.95 15.5 59.9 43 3.1 37.7
01:10 1016 30 845 24.95 15 59 54 6 42.8
01:15 1016 30 845 24.95 14.8 58.7 47 3.6 38.5
01:20 1016 30 845 24.95 14.9 58.9 45 3.4 38
01:25 1016 30 845 24.95 14.9 58.8 44 2.9 37.3
01:30 1016 30 845 24.95 14.5 58.1 48 3.8 38.9
01:35 1016 30 845 24.95 13.7 56.7 52 4.1 39.4
01:40 1016 30 845 24.95 13.4 56 53 4 39.3
01:45 1016 30 845 24.95 13.3 56 52 3.7 38.6
01:50 1016 30 845 24.95 13.7 56.7 48 3 37.4
01:55 1016 30 845 24.95 14.3 57.7 45 2.7 36.8
02:00 1015 29.97 845 24.95 14.6 58.2 43 2.3 36.2
02:05 1015 29.97 845 24.95 14.9 58.7 43 2.3 36.2
02:10 1015 29.97 845 24.95 14.9 58.7 42 2.2 36
02:15 1015 29.97 845 24.95 15 58.9 43 2.7 36.9
02:20 1015 29.97 845 24.95 15 59.1 41 2.1 35.7
02:25 1015 29.97 845 24.95 15 58.9 43 2.7 36.9
02:30 1016 30 845 24.95 14.6 58.2 44 2.6 36.7
02:35 1016 30 845 24.95 14.7 58.4 43 2.4 36.3
02:40 1016 30 845 24.95 14.6 58.2 45 3 37.4
02:45 1016 30 845 24.95 13.8 56.8 49 3.4 38.1
02:50 1016 30 845 24.95 13.3 55.9 50 3.1 37.6
02:55 1016 30 845 24.95 13.3 56 49 3 37.5
03:00 1016 30 845 24.95 13.6 56.6 46 2.2 36
03:05 1016 30 845 24.95 14 57.1 49 3.4 38.1
03:10 1016 30 845 24.95 13.4 56.1 51 3.5 38.2
03:15 1016 30 845 24.95 12.9 55.3 52 3.3 37.9
03:20 1016 30 845 24.95 12.7 54.8 52 3 37.5
03:25 1016 30 845 24.95 12.7 54.8 52 3 37.4
03:30 1016 30 845 24.95 12.8 55 50 2.8 37.1
03:35 1016 30 845 24.95 13.2 55.7 49 2.6 36.7
03:40 1016 30 845 24.95 13.4 56.2 47 2.6 36.6
03:45 1016 30 845 24.95 13.5 56.2 50 3.2 37.8
03:50 1016 30 845 24.95 13.3 55.9 49 2.9 37.2
03:55 1016 30 845 24.95 13.5 56.3 47 2.4 36.3
04:00 1016 30 845 24.95 13.7 56.6 49 3.3 37.9
04:05 1016 30 845 24.95 13 55.4 52 3.5 38.3
04:10 1016 30 845 24.95 12.4 54.2 55 3.6 38.5
04:15 1016 30 845 24.95 11.9 53.3 56 3.4 38.2
04:20 1016 30 845 24.95 11.8 53.2 56 3.4 38.1
04:25 1016 30 845 24.95 11.8 53.3 56 3.3 38
04:30 1016 30 845 24.95 11.9 53.5 55 3.2 37.7
04:35 1016 30 845 24.95 11.9 53.4 56 3.5 38.3
04:40 1016 30 845 24.95 11.7 53.1 56 3.2 37.8
04:45 1016 30 845 24.95 11.8 53.2 55 3.2 37.7
04:50 1016 30 845 24.95 11.6 52.9 56 3.2 37.8
04:55 1016 30 845 24.95 11.8 53.2 56 3.2 37.8
05:00 1016 30 845 24.95 11.7 53.1 56 3.3 37.9
05:05 1016 30 845 24.95 11.7 53 54 2.7 36.8
05:10 1016 30 846 24.98 12 53.5 53 2.8 37
05:15 1016 30 846 24.98 11.9 53.4 54 3 37.5
05:20 1016 30 846 24.98 11.9 53.3 54 2.9 37.2
05:25 1016 30 846 24.98 11.8 53.3 54 2.9 37.2
05:30 1016 30 846 24.98 11.8 53.2 55 3 37.4
05:35 1016 30 846 24.98 11.8 53.2 54 2.8 37
05:40 1016 30 846 24.98 11.6 52.9 56 3.2 37.7
05:45 1016 30 846 24.98 11.3 52.4 57 3.2 37.8
05:50 1016 30 846 24.98 10.8 51.4 60 3.3 37.9
05:55 1016 30 846 24.98 10.5 50.9 60 3.1 37.6
06:00 1016 30 846 24.98 10.6 51 58 2.7 36.8
06:05 1016 30 846 24.98 10.9 51.7 56 2.6 36.7
06:10 1016 30 846 24.98 11.3 52.3 53 2.1 35.8
06:15 1016 30 846 24.98 12 53.6 52 2.4 36.4
06:20 1016 30 846 24.98 11.9 53.4 53 2.7 36.9
06:25 1017 30.03 846 24.98 11.4 52.6 57 3.2 37.8
06:30 1017 30.03 846 24.98 11.3 52.4 55 2.6 36.7
06:35 1017 30.03 846 24.98 11.5 52.6 55 2.7 36.8
06:40 1017 30.03 846 24.98 11.4 52.6 56 3 37.5
06:45 1017 30.03 846 24.98 11.2 52.2 57 3.1 37.6
06:50 1017 30.03 846 24.98 11.2 52.1 56 2.7 36.8
06:55 1017 30.03 846 24.98 11.5 52.7 53 2.5 36.4
07:00 1017 30.03 846 24.98 11.9 53.3 53 2.7 36.9
07:05 1017 30.03 846 24.98 11.7 53 55 2.9 37.3
07:10 1017 30.03 846 24.98 11.4 52.5 56 3 37.4
07:15 1017 30.03 846 24.98 11.2 52.2 58 3.3 38
07:20 1017 30.03 846 24.98 11.1 51.9 59 3.3 38
07:25 1017 30.03 846 24.98 11.2 52.1 57 3.1 37.5
07:30 1017 30.03 846 24.98 11.4 52.6 58 3.4 38.1
07:35 1017 30.03 846 24.98 11.6 52.9 55 3 37.5
07:40 1017 30.03 846 24.98 12.2 54 52 2.8 37.1
07:45 1017 30.03 846 24.98 12.4 54.3 55 3.6 38.4
07:50 1017 30.03 846 24.98 12.4 54.3 55 3.6 38.4
07:55 1017 30.03 846 24.98 12.4 54.4 55 3.8 38.9
08:00 1017 30.03 846 24.98 12.4 54.4 57 4.3 39.7
08:05 1017 30.03 846 24.98 12.3 54.2 58 4.3 39.8
08:10 1017 30.03 846 24.98 12.5 54.4 56 4.1 39.4
08:15 1017 30.03 846 24.98 12.8 55.1 54 3.8 38.8
08:20 1017 30.03 846 24.98 13.4 56.1 51 3.7 38.6
08:25 1017 30.03 846 24.98 13.8 56.9 46 2.6 36.7
08:30 1017 30.03 847 25.01 14.3 57.8 50 4 39.2
08:35 1017 30.03 847 25.01 14.6 58.2 49 4.1 39.3
08:40 1017 30.03 847 25.01 14.9 58.7 50 4.7 40.5
08:45 1017 30.03 847 25.01 15.8 60.4 42 3.1 37.6
08:50 1017 30.03 847 25.01 16.6 61.8 41 3.5 38.3
08:55 1017 30.03 847 25.01 16.5 61.7 42 3.7 38.7
09:00 1017 30.03 847 25.01 16.8 62.3 43 4.3 39.7
09:05 1017 30.03 847 25.01 17 62.6 45 5 41
09:10 1017 30.03 847 25.01 17.3 63.2 44 5.1 41.3
09:15 1017 30.03 847 25.01 18 64.5 43 5.5 42
09:20 1017 30.03 847 25.01 17.7 63.9 45 5.8 42.5
09:25 1017 30.03 847 25.01 18.3 64.9 41 4.9 40.8
09:30 1017 30.03 847 25.01 19.1 66.4 40 5.3 41.6
09:35 1017 30.03 847 25.01 19 66.2 40 5.2 41.4
09:40 1017 30.03 847 25.01 19.5 67.2 39 5.4 41.8
09:45 1017 30.03 847 25.01 20 68 36 4.8 40.7
09:50 1017 30.03 847 25.01 20.3 68.5 37 5.2 41.3
09:55 1018 30.06 847 25.01 20.6 69 34 4.4 40
10:00 1018 30.06 847 25.01 20.8 69.4 34 4.4 40
10:05 1018 30.06 847 25.01 20.8 69.5 34 4.5 40.1
10:10 1018 30.06 847 25.01 20.5 68.9 33 3.9 39
10:15 1018 30.06 847 25.01 20.7 69.3 32 3.8 38.8
10:20 1018 30.06 847 25.01 20.3 68.6 31 3 37.4
10:25 1018 30.06 847 25.01 20.7 69.2 28 1.6 34.8
10:30 1018 30.06 847 25.01 20.1 68.2 29 1.6 34.8
10:35 1018 30.06 847 25.01 19.8 67.6 32 2.6 36.7
10:40 1018 30.06 847 25.01 20.5 68.8 31 2.9 37.2
10:45 1018 30.06 847 25.01 21.4 70.5 28 2.4 36.2
10:50 1018 30.06 847 25.01 21.6 70.9 27 2.2 35.9
10:55 1018 30.06 847 25.01 21.6 70.9 30 3.3 37.9
11:00 1018 30.06 847 25.01 21.4 70.6 28 2.6 36.6
11:05 1018 30.06 847 25.01 22 71.6 27 2.2 35.9
11:10 1018 30.06 847 25.01 21.7 71.1 29 3.1 37.6
11:15 1018 30.06 847 25.01 21.7 71 29 2.8 37.1
11:20 1018 30.06 847 25.01 21.9 71.4 29 3.3 37.9
11:25 1018 30.06 847 25.01 22.3 72.2 28 3.2 37.7
11:30 1018 30.06 847 25.01 22.6 72.7 27 3 37.5
11:35 1018 30.06 847 25.01 23.3 73.9 26 3.1 37.6
11:40 1018 30.06 847 25.01 23.5 74.4 24 2.3 36.1
11:45 1017 30.03 847 25.01 23.8 74.8 25 2.5 36.5
11:50 1017 30.03 847 25.01 23.8 74.9 26 3.6 38.5
11:55 1017 30.03 847 25.01 23.9 75 25 2.7 36.9
12:00 1017 30.03 847 25.01 24.4 76 25 3.2 37.7
12:05 1017 30.03 847 25.01 24.3 75.8 25 3.5 38.4
12:10 1017 30.03 847 25.01 23.4 74.1 27 3.8 38.9
12:15 1017 30.03 846 24.98 23.2 73.8 25 2.5 36.6
12:20 1017 30.03 846 24.98 24.3 75.8 24 2.8 37.1
12:25 1017 30.03 846 24.98 25 77 23 2.6 36.7
12:30 1017 30.03 846 24.98 25.6 78 23 3.4 38
12:35 1017 30.03 846 24.98 25.7 78.2 22 2.8 37.1
12:40 1017 30.03 846 24.98 25.9 78.5 23 3.3 37.9
12:45 1017 30.03 846 24.98 25.4 77.7 23 2.8 37.1
12:50 1017 30.03 846 24.98 25.3 77.5 21 1.9 35.5
12:55 1017 30.03 846 24.98 25.9 78.5 21 2.3 36.1
13:00 1017 30.03 846 24.98 26.7 80.1 21 2.7 36.9
13:05 1017 30.03 846 24.98 25.6 78 22 2.6 36.6
13:10 1017 30.03 846 24.98 25.7 78.2 22 2.7 36.9
13:15 1017 30.03 846 24.98 25.5 77.8 23 2.8 37
13:20 1017 30.03 846 24.98 25.5 77.9 21 2.1 35.8
13:25 1017 30.03 846 24.98 26.1 79 21 2.3 36.2
13:30 1016 30 846 24.98 26.7 80 20 2.4 36.4
13:35 1016 30 846 24.98 26.4 79.5 21 2.8 37.1
13:40 1016 30 846 24.98 26.3 79.3 20 1.7 35.1
13:45 1016 30 846 24.98 26.5 79.6 21 2.5 36.5
13:50 1016 30 845 24.95 26.9 80.5 20 2.1 35.8
13:55 1016 30 845 24.95 26.6 79.9 23 3.8 38.9
14:00 1016 30 845 24.95 26.9 80.4 21 3.3 38
14:05 1016 30 845 24.95 27 80.6 21 3 37.4
14:10 1016 30 845 24.95 27.5 81.6 19 2.4 36.3
14:15 1016 30 845 24.95 28.1 82.5 16 0.5 32.9
14:20 1016 30 845 24.95 27.8 82 16 -0.1 31.8
14:25 1016 30 845 24.95 27.6 81.7 16 -0.5 31.1
14:30 1016 30 845 24.95 27.4 81.4 16 -0.4 31.3
14:35 1016 30 845 24.95 27.6 81.7 15 -0.7 30.8
14:40 1016 30 845 24.95 28.4 83.1 15 0 32.1
14:45 1016 30 845 24.95 28.7 83.6 15 0.1 32.1
14:50 1016 30 845 24.95 28.6 83.4 15 -0.2 31.7
14:55 1016 30 845 24.95 28.6 83.4 15 -0.5 31.1
15:00 1016 30 845 24.95 27.9 82.3 15 -0.6 31
15:05 1016 30 845 24.95 28.3 82.9 15 -0.8 30.5
15:10 1016 30 845 24.95 28.2 82.8 15 -0.3 31.4
15:15 1016 30 845 24.95 28.2 82.7 14 -1.4 29.5
15:20 1016 30 845 24.95 28 82.4 15 -0.3 31.5
15:25 1016 30 845 24.95 28.5 83.3 15 -0.5 31.1
15:30 1016 30 845 24.95 28.6 83.4 14 -1.1 30.1
15:35 1016 30 845 24.95 28.6 83.4 14 -0.9 30.4
15:40 1016 30 845 24.95 29.2 84.5 15 0.2 32.3
15:45 1016 30 845 24.95 28.9 84 15 0 32.1
15:50 1016 30 845 24.95 28.6 83.5 15 0.1 32.1
15:55 1016 30 845 24.95 28.8 83.9 15 0.4 32.7
16:00 1016 30 845 24.95 28.8 83.8 16 0.8 33.4
16:05 1016 30 845 24.95 28.9 84 16 0.5 33
16:10 1016 30 845 24.95 29 84.1 16 0.6 33.1
16:15 1015 29.97 845 24.95 29.1 84.4 16 0.6 33.2
16:20 1015 29.97 845 24.95 29.7 85.5 15 0.3 32.5
16:25 1015 29.97 845 24.95 29.7 85.5 15 1 33.9
16:30 1015 29.97 845 24.95 29.3 84.7 17 2.2 35.9
16:35 1015 29.97 845 24.95 28.8 83.9 16 0.7 33.3
16:40 1015 29.97 845 24.95 27.5 81.5 18 1.5 34.6
16:45 1015 29.97 845 24.95 27.1 80.9 16 -0.6 31
16:50 1016 30 845 24.95 27.3 81.2 16 -0.7 30.8
16:55 1016 30 845 24.95 27.2 81 19 1.8 35.3
17:00 1016 30 845 24.95 26.9 80.4 18 1.2 34.2
17:05 1016 30 845 24.95 26.5 79.7 20 1.9 35.3
17:10 1016 30 845 24.95 26.3 79.3 20 1.5 34.6
17:15 1016 30 845 24.95 26.4 79.5 19 1.2 34.2
17:20 1016 30 845 24.95 26.3 79.4 20 2.1 35.8
17:25 1016 30 845 24.95 26.1 78.9 20 1.6 34.8
17:30 1016 30 845 24.95 26 78.8 20 1.8 35.3
17:35 1016 30 845 24.95 26.1 79 20 1.5 34.7
17:40 1016 30 845 24.95 26.4 79.5 21 2.7 36.9
17:45 1016 30 845 24.95 26.2 79.1 20 2.1 35.7
17:50 1016 30 845 24.95 26.1 79 22 3.2 37.7
17:55 1016 30 845 24.95 26.7 80 19 1.7 35
18:00 1016 30 845 24.95 26.9 80.5 20 2.2 36
18:05 1016 30 845 24.95 26.7 80 20 2.2 35.9
18:10 1016 30 845 24.95 26.8 80.2 20 2.2 35.9
18:15 1016 30 845 24.95 27 80.5 19 1.3 34.4
18:20 1016 30 845 24.95 26.5 79.8 18 0.5 32.9
18:25 1016 30 845 24.95 27 80.6 19 1.6 34.9
18:30 1016 30 845 24.95 27.5 81.4 18 1.4 34.5
18:35 1016 30 845 24.95 27.4 81.3 16 -0.3 31.5
18:40 1016 30 845 24.95 27.5 81.4 16 -0.3 31.4
18:45 1016 30 845 24.95 27.5 81.5 19 1.9 35.3
18:50 1016 30 845 24.95 27 80.6 19 1.4 34.6
18:55 1016 30 845 24.95 27.2 80.9 18 1.5 34.6
19:00 1016 30 845 24.95 27 80.5 15 -1.5 29.4
19:05 1016 30 845 24.95 26.8 80.2 16 -1.2 29.9
19:10 1016 30 845 24.95 26.5 79.8 15 -1.6 29.1
19:15 1015 29.97 845 24.95 26.5 79.7 15 -2.2 28
19:20 1015 29.97 845 24.95 26.5 79.7 16 -1.5 29.4
19:25 1016 30 845 24.95 26.4 79.5 16 -1.2 29.8
19:30 1015 29.97 845 24.95 26.1 79 17 -0.7 30.7
19:35 1015 29.97 845 24.95 25.9 78.5 18 -0.2 31.7
19:40 1015 29.97 845 24.95 25.7 78.2 20 1.1 34
19:45 1015 29.97 845 24.95 25.5 77.8 19 0.4 32.7
19:50 1016 30 845 24.95 25.3 77.5 18 -0.4 31.3
19:55 1016 30 845 24.95 25.1 77.3 20 0.8 33.5
20:00 1016 30 845 24.95 24.9 76.8 22 1.9 35.4
20:05 1016 30 845 24.95 24.7 76.5 21 0.9 33.7
20:10 1016 30 845 24.95 24.6 76.3 21 1 33.8
20:15 1016 30 845 24.95 24.5 76.1 21 0.7 33.3
20:20 1016 30 845 24.95 24.6 76.3 21 0.8 33.5
20:25 1016 30 845 24.95 24.5 76.1 21 0.8 33.5
20:30 1016 30 845 24.95 24.4 75.9 21 1.2 34.2
20:35 1016 30 845 24.95 24.3 75.8 22 1.7 35.1
20:40 1016 30 845 24.95 24.2 75.5 25 2.9 37.2
20:45 1016 30 845 24.95 23.5 74.4 27 3.7 38.7
20:50 1016 30 845 24.95 23.2 73.7 28 3.9 39
20:55 1016 30 845 24.95 22.7 72.9 27 3.2 37.7
21:00 1016 30 845 24.95 22.5 72.6 31 4.5 40.2
21:05 1016 30 845 24.95 22.4 72.3 30 4.3 39.8
21:10 1016 30 845 24.95 21.7 71.1 34 5.3 41.6
21:15 1016 30 845 24.95 21 69.9 38 6.3 43.3
21:20 1016 30 845 24.95 20.6 69.1 35 4.9 40.8
21:25 1016 30 845 24.95 20.4 68.7 33 3.7 38.7
21:30 1016 30 846 24.98 20.4 68.7 35 4.8 40.6
21:35 1016 30 846 24.98 20.4 68.8 34 4.1 39.4
21:40 1016 30 846 24.98 19.9 67.8 37 5 41
21:45 1016 30 846 24.98 19.4 66.9 39 5.2 41.3
21:50 1016 30 846 24.98 18.9 66 40 5 41.1
21:55 1016 30 846 24.98 18.7 65.6 43 6.1 43
22:00 1016 30 846 24.98 18.7 65.7 40 4.8 40.7
22:05 1017 30.03 846 24.98 18.6 65.4 44 6.1 42.9
22:10 1017 30.03 846 24.98 18.6 65.4 38 4.3 39.7
22:15 1017 30.03 846 24.98 18.6 65.5 38 4.2 39.5
22:20 1017 30.03 846 24.98 18.7 65.6 35 3.2 37.7
22:25 1017 30.03 846 24.98 19.1 66.5 33 2.5 36.4
22:30 1017 30.03 846 24.98 19.7 67.4 33 3.3 37.9
22:35 1017 30.03 846 24.98 19.6 67.3 32 2.6 36.7
22:40 1017 30.03 846 24.98 19.4 66.9 34 3.5 38.2
22:45 1017 30.03 846 24.98 19 66.2 34 3.1 37.5
22:50 1017 30.03 846 24.98 18.9 66 35 3.1 37.5
22:55 1017 30.03 846 24.98 18.9 66 35 3 37.4
23:00 1017 30.03 846 24.98 19 66.1 34 2.7 36.9
23:05 1017 30.03 846 24.98 19.1 66.3 34 2.8 37.1
23:10 1017 30.03 846 24.98 18.9 66 35 3.1 37.5
23:15 1017 30.03 846 24.98 18.7 65.7 34 2.5 36.6
23:20 1017 30.03 846 24.98 18.8 65.8 34 2.5 36.6
23:25 1017 30.03 846 24.98 18.9 65.9 35 3 37.4
23:30 1017 30.03 846 24.98 18.8 65.8 34 2.6 36.6
23:35 1017 30.03 846 24.98 18.8 65.8 33 2.4 36.3
23:40 1017 30.03 847 25.01 19.2 66.5 34 3 37.3
23:45 1017 30.03 847 25.01 19.1 66.4 33 2.5 36.5
23:50 1017 30.03 847 25.01 19.1 66.3 31 1.6 34.8
23:55 1017 30.03 847 25.01 19.6 67.2 32 2.5 36.5
24:00 1017 30.03 847 25.01 19.4 66.9 31 2 35.6